DURO2: Washita River Durwood, OK

Data processed at Fri May 18 2018 23:35


All information presented herein is the property of the government of the United States of America and may be revised or deleted at any time without prior notice.
Dissemination of this information without the expressed written consent of the Public Affairs Office, Tulsa District U.S. Army Corps of Engineers is strictly prohibited.
These data are gathered electronically and, as presented, have not undergone any form of quality control. These data are not guaranteed to be valid or correct.
Go to home page.
Go to station list.

Upstream stations:

Downstream station:
Previous Day
Next Day
Current Day
    
SHEF ID:       DURO2     Washita River near Dickson, OK
STATION TYPE:  

               PRECIP PRECIP(A)     STAGE  RIV-FLOW  BAT-LOAD
                   in        in        ft       cfs      volt
              Ccp-Rev   Ccp-Rev   Ccp-Rev   Ccp-Rev   Ccp-Rev
(US/Central)
05/16 00:00      0.00      ----      7.45      1013     12.41
05/16 01:00      0.00      ----      7.54      1073     12.41
05/16 02:00      0.00      ----      7.66      1155     12.41
05/16 03:00      0.00      ----      7.73      1201     12.41
05/16 04:00      0.00      ----      7.81      1254     12.41
05/16 05:00      0.00      ----      7.78      1234      ----
05/16 06:00      0.00      ----      7.81      1254     12.33
05/16 07:00      0.00      ----      7.79      1241     12.33
05/16 08:00      0.00      ----      7.88      1302     12.73
05/16 09:00      0.00      ----      8.16      1499     12.97
05/16 10:00      0.00      ----      8.61      1838     12.81
05/16 11:00      0.00      ----      8.98      2138     12.73
05/16 12:00      0.00      ----      9.24      2359     12.65
05/16 13:00      0.00      ----      9.40      2500     12.65
05/16 14:00      0.00      ----      9.48      2571     12.65
05/16 15:00      0.00      ----      9.52      2607     12.65
05/16 16:00      0.00      ----      9.53      2616     12.65
05/16 17:00      0.00      ----      9.53      2616     12.65
05/16 18:00      0.00      ----      9.48      2571     12.65
05/16 19:00      0.00      ----      9.46      2553     12.65
05/16 20:00      0.00      ----      9.46      2553     12.57
05/16 21:00      0.00      ----      9.44      2535     12.49
05/16 22:00      0.00      ----      9.44      2535     12.49
05/16 23:00      0.00      ----      9.45      2544     12.49